Time;durP1;ratioP1;P1;durP2;ratioP2;P2;SDS_P1;SDS_P2;PMS_P1;PMS_P2;Temp;Humidity;BMP_temperature;BMP_pressure;BME280_temperature;BME280_humidity;BME280_pressure;Samples;Min_cycle;Max_cycle;Signal;HPM_P1;HPM_P2
2022/01/08 00:00:38;;;;;;;1.53;1.43;;;4.90;83.60;;;5.11;56.95;98280.34;4917742;28;113618;-87
2022/01/08 00:03:22;;;;;;;2.00;1.53;;;4.60;83.30;;;5.14;56.26;98260.59;4927330;28;123100;-87
2022/01/08 00:05:50;;;;;;;1.73;1.63;;;4.60;83.30;;;5.14;56.74;98247.72;4911032;28;124276;-87
2022/01/08 00:08:35;;;;;;;1.67;1.40;;;4.70;83.30;;;5.21;56.87;98253.66;4895198;28;113105;-87
2022/01/08 00:11:06;;;;;;;2.00;1.53;;;4.70;83.20;;;5.21;55.83;98250.94;4912816;28;113240;-87
2022/01/08 00:13:34;;;;;;;1.97;1.37;;;4.70;83.20;;;5.24;56.63;98233.91;4948617;28;124073;-89
2022/01/08 00:16:00;;;;;;;1.57;1.47;;;4.70;83.10;;;5.27;56.21;98233.31;4963525;28;123759;-87
2022/01/08 00:18:27;;;;;;;2.10;1.70;;;4.70;83.10;;;5.30;56.21;98229.19;4953639;28;114511;-87
2022/01/08 00:20:56;;;;;;;1.47;1.33;;;4.80;83.10;;;5.34;55.66;98213.78;4953653;28;112993;-87
2022/01/08 00:23:24;;;;;;;1.30;1.20;;;4.80;83.00;;;5.37;55.84;98212.38;4961364;28;123289;-86
2022/01/08 00:26:09;;;;;;;2.03;1.30;;;4.90;83.00;;;5.41;55.97;98194.25;4936765;28;122730;-86
2022/01/08 00:28:36;;;;;;;1.60;1.27;;;5.10;83.00;;;5.41;55.72;98202.50;4962674;28;112392;-85
2022/01/08 00:31:03;;;;;;;2.17;1.70;;;4.90;82.70;;;5.43;55.63;98195.59;4951346;28;113999;-86
2022/01/08 00:33:31;;;;;;;2.90;1.57;;;4.90;82.70;;;5.46;55.79;98196.94;4952559;28;123293;-85
2022/01/08 00:35:57;;;;;;;2.03;1.57;;;5.10;82.70;;;5.49;55.33;98188.13;4950453;28;124088;-85
2022/01/08 00:38:25;;;;;;;1.87;1.37;;;5.00;82.60;;;5.52;55.60;98180.13;4960636;28;115269;-86
2022/01/08 00:40:51;;;;;;;4.50;1.60;;;5.00;82.50;;;5.56;55.63;98185.81;4952537;28;114826;-86
2022/01/08 00:43:19;;;;;;;2.03;1.30;;;5.00;82.40;;;5.59;55.18;98187.16;4951246;28;122912;-85
2022/01/08 00:45:47;;;;;;;2.30;1.57;;;5.00;82.30;;;5.60;55.27;98188.81;4946429;28;123776;-86
2022/01/08 00:48:15;;;;;;;2.40;1.50;;;5.10;82.20;;;5.61;55.09;98168.50;4950473;28;114165;-85
2022/01/08 00:51:21;;;;;;;3.47;1.60;;;5.10;82.00;;;5.64;55.30;98176.97;4948825;28;113885;-85
2022/01/08 00:53:50;;;;;;;1.40;1.30;;;5.10;81.90;;;5.64;54.71;98174.22;4946798;28;123474;-85
2022/01/08 00:56:17;;;;;;;2.30;1.63;;;5.10;81.90;;;5.66;55.02;98162.97;4950488;28;122974;-85
2022/01/08 00:58:44;;;;;;;2.40;1.50;;;5.10;81.80;;;5.69;54.28;98168.66;4960270;28;112202;-85
2022/01/08 01:01:10;;;;;;;1.80;1.43;;;5.10;81.80;;;5.71;54.70;98152.72;4934261;28;115162;-87
2022/01/08 01:03:39;;;;;;;1.97;1.77;;;5.50;82.10;;;5.74;54.67;98149.41;4959470;28;124040;-86
2022/01/08 01:06:24;;;;;;;1.60;1.50;;;5.30;81.80;;;5.78;54.91;98140.56;4940966;28;123518;-86
2022/01/08 01:08:50;;;;;;;2.60;1.67;;;5.20;81.60;;;5.79;54.65;98142.22;4954702;28;113035;-86
2022/01/08 01:11:17;;;;;;;2.17;1.40;;;5.20;81.50;;;5.76;54.14;98136.22;4961896;28;113939;-86
2022/01/08 01:13:46;;;;;;;2.37;1.57;;;5.20;81.50;;;5.79;54.62;98132.06;4951095;28;123743;-86
2022/01/08 01:16:13;;;;;;;3.13;1.70;;;5.30;81.50;;;5.83;54.43;98130.38;4985321;28;124210;-85
2022/01/08 01:18:40;;;;;;;2.00;1.50;;;5.30;81.50;;;5.86;54.89;98123.47;4959522;28;114544;-86
2022/01/08 01:21:25;;;;;;;3.00;1.87;;;5.30;81.50;;;5.91;54.38;98118.72;4953289;28;113943;-87
2022/01/08 01:23:53;;;;;;;2.00;1.50;;;5.30;81.30;;;5.89;54.55;98117.41;4951270;28;123197;-86
2022/01/08 01:26:25;;;;;;;1.80;1.43;;;5.30;81.30;;;5.90;54.27;98111.59;4963810;28;123826;-86
2022/01/08 01:47:42;;;;;;;1.43;1.30;;;5.40;81.10;;;5.99;54.73;98056.91;4975572;28;124360;-86
2022/01/08 01:50:10;;;;;;;3.03;1.90;;;5.40;81.00;;;6.01;54.22;98054.69;4952306;28;112421;-85
2022/01/08 01:52:37;;;;;;;1.97;1.50;;;5.40;81.10;;;6.05;54.48;98041.22;4949495;28;113270;-86
2022/01/08 01:55:06;;;;;;;2.37;1.93;;;4.40;80.10;;;6.07;54.10;98031.56;4948977;28;124190;-86
2022/01/08 01:57:34;;;;;;;2.17;1.40;;;5.50;81.10;;;6.07;53.90;98023.34;4981304;28;123518;-84
2022/01/08 02:00:01;;;;;;;2.30;1.50;;;5.50;81.10;;;6.07;53.78;98009.63;4943392;28;114112;-87
2022/01/08 02:02:27;;;;;;;2.60;1.80;;;5.50;81.00;;;6.11;53.77;97998.88;4991040;28;112729;-86
2022/01/08 02:04:54;;;;;;;2.70;1.40;;;5.50;81.00;;;6.12;53.76;97993.06;4958387;28;123983;-86
2022/01/08 02:07:23;;;;;;;1.73;1.23;;;4.30;79.90;;;6.14;53.79;97984.53;4961771;28;123825;-85
2022/01/08 02:10:27;;;;;;;1.90;1.43;;;5.60;81.00;;;6.18;53.65;97982.84;4976612;28;114247;-85
2022/01/08 02:12:54;;;;;;;1.70;1.60;;;5.60;80.90;;;6.14;54.16;97971.63;4972145;28;113608;-84
2022/01/08 02:15:20;;;;;;;1.90;1.40;;;5.60;80.90;;;6.17;54.09;97987.47;4948930;28;123274;-85
2022/01/08 02:17:47;;;;;;;1.60;1.50;;;5.60;80.90;;;6.16;53.93;97972.16;4960987;28;122772;-87
2022/01/08 02:20:14;;;;;;;1.60;1.40;;;5.60;80.70;;;6.17;53.97;97981.19;4958297;28;115190;-86
2022/01/08 02:22:41;;;;;;;1.97;1.37;;;5.70;80.70;;;6.14;53.83;97971.63;4948862;28;113845;-86
2022/01/08 02:25:09;;;;;;;2.10;1.80;;;5.60;80.60;;;6.14;53.92;97962.59;4940847;28;123775;-87
2022/01/08 02:27:38;;;;;;;2.27;1.50;;;5.60;80.60;;;6.14;54.08;97957.13;4952111;28;122977;-87
2022/01/08 02:30:05;;;;;;;1.93;1.50;;;5.60;80.80;;;6.14;53.95;97944.22;4960668;28;112493;-86
2022/01/08 02:32:35;;;;;;;1.40;1.30;;;5.60;80.80;;;6.18;54.21;97949.94;4956852;28;112536;-86
2022/01/08 02:35:59;;;;;;;3.30;1.70;;;5.60;80.90;;;6.23;53.76;97949.00;4957172;28;123997;-86
2022/01/08 02:38:27;;;;;;;1.60;1.37;;;5.60;80.90;;;6.21;53.42;97938.34;4941249;28;123970;-86
2022/01/08 02:40:59;;;;;;;1.30;1.17;;;5.60;80.90;;;6.18;54.04;97925.25;4944116;28;113528;-86
2022/01/08 02:44:05;;;;;;;3.30;1.37;;;5.80;81.10;;;6.20;54.00;97925.72;4954918;28;113824;-85
2022/01/08 02:46:33;;;;;;;1.30;1.20;;;5.70;81.20;;;6.19;53.97;97918.63;4954064;28;123581;-86
2022/01/08 02:48:59;;;;;;;1.67;1.20;;;5.70;81.20;;;6.23;54.30;97910.59;4948416;28;122875;-85
2022/01/08 02:51:27;;;;;;;2.17;1.37;;;5.70;81.30;;;6.26;54.53;97901.75;4951764;28;113307;-86
2022/01/08 02:53:55;;;;;;;4.07;1.20;;;5.70;81.40;;;6.28;54.42;97916.78;4940387;28;113454;-86
2022/01/08 02:56:22;;;;;;;2.20;1.37;;;5.70;81.50;;;6.30;54.44;97908.25;4941052;28;123151;-86
2022/01/08 02:58:48;;;;;;;1.53;1.00;;;5.70;81.50;;;6.31;54.07;97907.13;4962166;28;122858;-86
2022/01/08 03:01:34;;;;;;;2.33;1.30;;;5.70;81.50;;;6.33;54.27;97888.44;4959495;28;114222;-86
2022/01/08 03:04:04;;;;;;;1.50;1.40;;;5.70;81.60;;;6.30;55.06;97891.78;4950688;28;114042;-87
2022/01/08 03:06:31;;;;;;;2.10;1.50;;;5.70;81.70;;;6.30;54.96;97892.59;4941280;28;123971;-86
2022/01/08 03:09:00;;;;;;;1.87;1.40;;;5.70;81.80;;;6.28;55.24;97892.09;4966375;28;123987;-86
2022/01/08 03:11:27;;;;;;;3.70;1.50;;;5.70;82.00;;;6.26;54.69;97885.28;4959983;28;114358;-86
2022/01/08 03:13:55;;;;;;;2.40;1.20;;;5.70;82.10;;;6.26;54.99;97882.53;4953367;28;114802;-87
2022/01/08 03:16:43;;;;;;;2.07;1.50;;;5.70;82.20;;;6.28;55.39;97883.88;4982415;28;123494;-86
2022/01/08 03:19:30;;;;;;;1.43;1.30;;;5.70;82.90;;;6.22;55.39;97884.28;4949408;28;122865;-86
2022/01/08 03:22:02;;;;;;;4.73;1.50;;;5.70;83.10;;;6.17;56.34;97890.69;4959090;28;113391;-85
2022/01/08 03:24:29;;;;;;;3.13;1.67;;;5.70;83.30;;;6.14;56.58;97877.59;4959359;28;113740;-86
2022/01/08 03:27:16;;;;;;;2.80;1.70;;;6.50;84.20;;;6.14;56.47;97878.41;4958639;28;123388;-87
2022/01/08 03:29:42;;;;;;;1.63;1.53;;;5.60;84.10;;;6.07;56.63;97868.94;4960297;28;123185;-86
2022/01/08 03:32:11;;;;;;;1.80;1.27;;;5.80;84.30;;;6.06;57.37;97870.09;4948550;28;113590;-86
2022/01/08 03:34:56;;;;;;;3.23;1.83;;;5.60;84.90;;;6.04;57.88;97862.16;4949465;28;113279;-85
2022/01/08 03:37:23;;;;;;;3.23;1.40;;;5.50;85.30;;;6.01;58.20;97860.03;4942650;28;123646;-85
2022/01/08 03:40:09;;;;;;;2.00;1.80;;;5.50;85.50;;;5.98;58.32;97860.63;4943182;28;123163;-87
2022/01/08 03:42:36;;;;;;;1.57;1.40;;;5.50;85.80;;;5.92;58.91;97857.16;4949582;28;113767;-86
2022/01/08 03:45:22;;;;;;;1.50;1.40;;;5.50;85.90;;;5.93;58.38;97868.94;4958019;28;113710;-86
2022/01/08 03:50:15;;;;;;;2.00;1.70;;;5.50;86.90;;;5.83;59.41;97853.53;4952464;28;124503;-86
2022/01/08 03:52:43;;;;;;;2.87;1.60;;;5.40;87.30;;;5.80;60.28;97851.34;4949541;28;113282;-86
2022/01/08 03:55:10;;;;;;;2.33;1.63;;;5.40;87.60;;;5.76;60.61;97862.13;4949394;28;113318;-86
2022/01/08 03:57:36;;;;;;;2.30;1.80;;;5.30;87.90;;;5.73;60.76;97849.03;4963966;28;124205;-86
2022/01/08 04:00:05;;;;;;;3.70;1.70;;;5.30;88.30;;;5.70;60.76;97846.91;4933130;28;123083;-87
2022/01/08 04:02:32;;;;;;;1.77;1.67;;;5.30;88.40;;;5.69;61.05;97849.94;4930598;28;114474;-88
2022/01/08 04:04:59;;;;;;;2.30;1.90;;;5.20;89.00;;;5.62;61.58;97850.34;4947879;28;113978;-87
2022/01/08 04:07:26;;;;;;;2.50;1.80;;;5.20;89.00;;;5.56;61.49;97846.06;4948081;28;123036;-87
2022/01/08 04:09:52;;;;;;;1.87;1.77;;;5.20;89.20;;;5.52;61.90;97847.81;4952539;28;122881;-87
2022/01/08 04:12:29;;;;;;;1.90;1.70;;;5.10;89.30;;;5.49;62.16;97840.19;4936351;28;114244;-88
2022/01/08 04:15:05;;;;;;;1.87;1.70;;;5.10;89.50;;;5.46;62.02;97847.09;4950620;28;113051;-87
2022/01/08 04:17:32;;;;;;;2.30;1.80;;;5.20;90.00;;;5.45;62.47;97858.34;4975903;28;122480;-87
2022/01/08 04:20:20;;;;;;;2.10;1.90;;;5.10;90.00;;;5.42;62.51;97850.72;4953770;28;122842;-88
2022/01/08 04:22:49;;;;;;;2.70;2.10;;;5.00;90.00;;;5.41;62.80;97851.84;4957061;28;114130;-87
2022/01/08 04:25:35;;;;;;;2.53;1.73;;;5.20;90.20;;;5.43;62.79;97844.16;4963581;28;113060;-88
2022/01/08 04:28:40;;;;;;;1.83;1.73;;;5.00;90.20;;;5.41;62.59;97844.44;4952352;28;122755;-87
2022/01/08 04:31:25;;;;;;;2.30;2.07;;;5.00;90.50;;;5.38;62.46;97866.97;4955190;28;121794;-87
2022/01/08 04:33:53;;;;;;;3.60;2.20;;;6.40;91.10;;;5.36;63.48;97865.66;4953491;28;113624;-88
2022/01/08 04:36:21;;;;;;;3.10;1.70;;;4.90;90.60;;;5.36;63.41;97862.91;4937873;28;113258;-88
2022/01/08 04:38:48;;;;;;;3.73;2.20;;;5.00;90.60;;;5.37;62.89;97872.72;4958821;28;123495;-87
2022/01/08 04:42:11;;;;;;;2.53;2.33;;;4.90;90.60;;;5.39;63.43;97881.47;4963660;28;121699;-87
2022/01/08 04:44:57;;;;;;;1.93;1.70;;;4.90;90.90;;;5.31;63.90;97883.78;4951830;28;116819;-88
2022/01/08 04:47:25;;;;;;;1.93;1.70;;;4.90;91.00;;;5.26;64.27;97872.91;4952777;28;113949;-87
2022/01/08 04:49:51;;;;;;;2.80;1.80;;;4.90;91.00;;;5.25;64.60;97887.72;4943111;28;123231;-86
2022/01/08 04:52:18;;;;;;;2.87;1.87;;;4.90;91.10;;;5.26;64.71;97894.00;4951331;28;123359;-87
2022/01/08 04:54:47;;;;;;;2.27;2.00;;;4.80;91.30;;;5.22;64.93;97891.06;4954798;28;114279;-88
2022/01/08 04:57:50;;;;;;;2.70;1.70;;;4.80;91.50;;;5.21;64.66;97905.88;4951134;28;114184;-87
2022/01/08 05:00:20;;;;;;;4.10;1.87;;;4.80;91.60;;;5.15;65.12;97904.31;4951387;28;123796;-87
2022/01/08 05:02:49;;;;;;;1.80;1.63;;;4.80;91.60;;;5.11;65.49;97906.03;4953257;28;122505;-88
2022/01/08 05:05:17;;;;;;;1.67;1.57;;;4.70;91.60;;;5.10;65.40;97915.34;4957762;28;113195;-87
2022/01/08 05:07:45;;;;;;;1.60;1.50;;;4.70;92.00;;;5.11;65.35;97916.19;4951393;28;113890;-88
2022/01/08 05:10:12;;;;;;;4.17;2.10;;;4.70;91.70;;;5.07;65.63;97914.03;4954351;28;123785;-86
2022/01/08 05:12:40;;;;;;;3.03;2.00;;;4.80;91.90;;;5.05;65.42;97929.97;4952780;28;123632;-88
2022/01/08 05:15:07;;;;;;;2.00;1.70;;;4.70;91.90;;;5.02;65.94;97929.72;4942443;28;113518;-87
2022/01/08 05:17:55;;;;;;;1.70;1.60;;;4.60;91.90;;;5.01;65.70;97934.38;4968310;28;113523;-88
2022/01/08 05:20:22;;;;;;;4.53;1.57;;;4.60;92.00;;;4.97;65.63;97936.09;4948289;28;124946;-87
2022/01/08 05:23:27;;;;;;;1.47;1.33;;;4.80;92.10;;;4.97;65.83;97946.22;4947804;28;123274;-87
2022/01/08 05:25:54;;;;;;;1.53;1.37;;;4.60;92.10;;;4.91;66.12;97955.63;4957614;28;114511;-87
2022/01/08 05:28:21;;;;;;;1.60;1.47;;;4.60;92.10;;;4.88;65.82;97960.56;4965591;28;113878;-88
2022/01/08 05:30:48;;;;;;;2.80;1.47;;;4.50;92.10;;;4.90;66.33;97971.25;4967280;28;124032;-87
2022/01/08 05:33:15;;;;;;;1.57;1.40;;;5.40;92.50;;;4.91;66.58;97977.53;4939281;28;123872;-87
2022/01/08 05:35:45;;;;;;;4.23;1.60;;;4.60;92.20;;;4.89;66.45;97977.84;4961310;28;114274;-87
2022/01/08 05:38:12;;;;;;;1.77;1.43;;;4.50;92.20;;;4.88;66.39;97989.88;4951112;28;113197;-87
2022/01/08 05:40:40;;;;;;;1.30;1.20;;;4.50;92.30;;;4.86;66.47;97995.66;4949501;28;124040;-87
2022/01/08 05:43:07;;;;;;;1.93;1.73;;;4.50;92.40;;;4.81;66.71;98001.19;4962047;28;123836;-86
2022/01/08 05:45:53;;;;;;;1.43;1.33;;;4.40;92.40;;;4.81;66.33;98012.16;4949779;28;115709;-87
2022/01/08 05:48:21;;;;;;;1.40;1.30;;;4.40;92.40;;;4.79;66.81;98021.75;4951470;28;114867;-87
2022/01/08 05:50:49;;;;;;;1.57;1.40;;;4.40;92.60;;;4.77;66.74;98016.56;4949897;28;122819;-85
2022/01/08 05:53:18;;;;;;;1.17;1.07;;;4.40;92.50;;;4.77;66.67;98016.56;4947041;28;123836;-87
2022/01/08 05:55:47;;;;;;;1.23;1.00;;;4.40;92.60;;;4.79;67.31;98041.72;4947167;28;114185;-86
2022/01/08 05:58:13;;;;;;;1.23;1.13;;;4.40;92.70;;;4.76;66.80;98042.31;4948646;28;113734;-87
2022/01/08 06:00:42;;;;;;;1.40;1.30;;;4.40;92.70;;;4.76;66.87;98052.44;4957200;28;121814;-86
2022/01/08 06:03:09;;;;;;;1.03;0.93;;;4.40;92.80;;;4.74;66.89;98074.63;4950944;28;124151;-86
2022/01/08 06:05:55;;;;;;;1.10;0.90;;;5.10;93.10;;;4.75;66.92;98087.19;4952690;28;114545;-87
2022/01/08 06:08:41;;;;;;;1.10;1.00;;;4.30;92.80;;;4.71;66.85;98109.97;4950745;28;113570;-86
2022/01/08 06:11:07;;;;;;;1.10;1.00;;;4.30;92.80;;;4.65;67.41;98098.28;4947180;28;123047;-87
2022/01/08 06:13:34;;;;;;;1.23;1.13;;;4.30;92.80;;;4.60;67.02;98117.47;4949192;28;124060;-87
2022/01/08 06:16:20;;;;;;;1.60;1.00;;;4.20;92.80;;;4.60;67.28;98128.41;4952296;28;114416;-85
2022/01/08 06:18:48;;;;;;;1.10;1.00;;;4.20;92.80;;;4.59;66.90;98138.56;4943619;28;113101;-87
2022/01/08 06:21:54;;;;;;;1.10;0.90;;;4.20;92.70;;;4.63;66.33;98149.72;4964384;28;123879;-87
2022/01/08 06:24:21;;;;;;;2.80;0.90;;;4.20;92.70;;;4.60;66.55;98166.72;4961675;28;123873;-87
2022/01/08 06:26:49;;;;;;;1.10;1.00;;;4.20;92.60;;;4.58;66.63;98188.88;4961163;28;114883;-87
2022/01/08 06:29:17;;;;;;;1.00;0.90;;;4.20;92.60;;;4.56;66.47;98187.53;4955599;28;113001;-86
2022/01/08 06:31:45;;;;;;;1.27;1.17;;;4.20;92.50;;;4.50;66.58;98188.69;4951728;28;123282;-87
2022/01/08 06:34:11;;;;;;;0.80;0.80;;;4.10;92.40;;;4.47;66.46;98197.47;4950793;28;122885;-86
2022/01/08 06:36:58;;;;;;;1.80;0.90;;;4.70;92.60;;;4.42;66.20;98199.13;4957441;28;116006;-88
2022/01/08 06:39:25;;;;;;;1.10;0.90;;;4.00;92.30;;;4.37;65.76;98210.13;4951344;28;113978;-87
2022/01/08 06:41:53;;;;;;;1.00;0.90;;;5.50;92.90;;;4.36;66.41;98213.16;4941203;28;123132;-88
2022/01/08 06:44:21;;;;;;;1.10;1.00;;;4.00;92.40;;;4.32;66.45;98229.31;4949989;28;123894;-87
2022/01/08 06:46:48;;;;;;;1.10;1.00;;;4.00;92.70;;;4.29;66.46;98224.41;4974740;28;114313;-86
2022/01/08 06:49:36;;;;;;;1.20;1.10;;;4.00;92.40;;;4.29;66.38;98240.00;4958564;28;113051;-87
2022/01/08 06:52:03;;;;;;;1.77;1.10;;;3.90;92.30;;;4.24;66.36;98253.72;4957309;28;125278;-87
2022/01/08 06:54:49;;;;;;;1.47;1.10;;;3.90;92.30;;;4.27;66.41;98267.66;4946322;28;123747;-87
2022/01/08 06:57:16;;;;;;;1.07;0.97;;;3.90;92.30;;;4.23;65.77;98268.50;4956475;28;113419;-87
2022/01/08 07:00:04;;;;;;;1.00;0.90;;;3.90;92.30;;;4.26;66.31;98276.94;4962182;28;111973;-87
2022/01/08 07:03:10;;;;;;;1.07;0.97;;;3.90;92.30;;;4.24;65.79;98281.88;4956722;28;123758;-87
2022/01/08 07:06:35;;;;;;;1.40;1.20;;;3.80;92.20;;;4.20;65.96;98302.69;4947215;28;123899;-87
2022/01/08 07:12:42;;;;;;;1.80;1.20;;;3.80;92.20;;;4.13;66.12;98341.25;4965505;28;113732;-86
2022/01/08 07:15:10;;;;;;;2.37;1.30;;;3.80;92.10;;;4.12;66.41;98328.69;4955525;28;122962;-87
2022/01/08 07:18:27;;;;;;;1.20;1.10;;;3.80;92.10;;;4.16;66.12;98353.56;4956014;28;123457;-88
2022/01/08 07:21:50;;;;;;;1.50;1.03;;;3.80;92.10;;;4.16;65.44;98359.88;4982099;28;113125;-87
2022/01/08 07:24:19;;;;;;;1.47;1.37;;;3.80;92.20;;;4.11;66.05;98367.25;4976305;28;112570;-85
2022/01/08 07:26:46;;;;;;;1.23;1.13;;;3.80;92.20;;;4.11;66.22;98380.91;4961648;28;122993;-87
2022/01/08 07:29:52;;;;;;;1.87;1.20;;;3.70;92.30;;;4.13;65.79;98389.66;4960802;28;123818;-87
2022/01/08 07:32:58;;;;;;;1.53;1.43;;;3.80;92.30;;;4.11;66.08;98387.22;4956873;28;114496;-88
2022/01/08 07:36:23;;;;;;;2.23;1.50;;;3.70;92.30;;;4.12;66.52;98399.78;4969038;28;113889;-86
2022/01/08 07:39:28;;;;;;;1.80;1.30;;;3.70;92.40;;;4.11;66.20;98410.97;4951443;28;123630;-87
2022/01/08 07:45:36;;;;;;;3.40;1.47;;;3.70;92.40;;;4.04;66.77;98419.50;4951929;28;114845;-88
2022/01/08 07:48:04;;;;;;;1.50;1.40;;;3.70;92.50;;;4.09;66.44;98427.69;4964440;28;112396;-88
2022/01/08 07:50:32;;;;;;;7.40;2.03;;;3.80;92.40;;;4.12;66.52;98432.59;4948858;28;124203;-87
2022/01/08 07:53:01;;;;;;;1.73;1.50;;;3.80;92.50;;;4.14;66.13;98437.78;4954596;28;122633;-87
2022/01/08 07:55:30;;;;;;;2.00;1.77;;;3.80;92.50;;;4.17;66.28;98439.97;4969129;28;113292;-87
2022/01/08 07:57:57;;;;;;;2.30;2.03;;;3.80;92.50;;;4.17;66.13;98450.91;4955209;28;113297;-87
2022/01/08 08:00:44;;;;;;;1.70;1.60;;;3.80;92.50;;;4.18;66.48;98453.34;4952775;28;124153;-87
2022/01/08 08:03:13;;;;;;;1.70;1.60;;;3.80;92.50;;;4.17;66.51;98456.38;4971736;28;123142;-87
2022/01/08 08:05:42;;;;;;;2.43;1.40;;;3.80;92.50;;;4.15;66.19;98469.50;4948505;28;114372;-87
2022/01/08 08:08:14;;;;;;;2.20;1.50;;;3.80;92.50;;;4.15;66.48;98480.44;4951820;28;113662;-88
2022/01/08 08:10:41;;;;;;;2.13;1.47;;;3.80;92.50;;;4.14;66.49;98487.00;4950920;28;123826;-87
2022/01/08 08:13:09;;;;;;;3.17;1.50;;;3.70;92.50;;;4.11;66.69;98491.09;4953094;28;122357;-87
2022/01/08 08:15:36;;;;;;;4.33;1.90;;;3.70;92.70;;;4.10;67.01;98494.09;4954238;28;112345;-87
2022/01/08 08:18:21;;;;;;;3.10;1.77;;;3.70;92.50;;;4.11;66.17;98495.72;4939727;28;113672;-87
2022/01/08 08:21:07;;;;;;;2.40;1.37;;;3.70;92.50;;;4.12;66.40;98503.66;4950546;28;123954;-87
2022/01/08 08:23:35;;;;;;;3.00;1.60;;;3.70;92.40;;;4.13;65.95;98504.47;4971704;28;122687;-88
2022/01/08 08:26:02;;;;;;;2.93;1.67;;;3.70;92.30;;;4.14;65.53;98498.75;4971648;28;113424;-88
2022/01/08 08:28:29;;;;;;;2.70;1.77;;;3.80;92.30;;;4.16;65.82;98517.59;4955801;28;113873;-87
2022/01/08 08:31:14;;;;;;;3.17;1.77;;;3.80;92.20;;;4.22;65.71;98508.31;4946957;28;123206;-87
2022/01/08 08:33:41;;;;;;;2.40;1.70;;;3.80;92.10;;;4.23;65.69;98515.41;4949575;28;123485;-88
2022/01/08 08:36:08;;;;;;;1.93;1.37;;;4.10;92.10;;;4.26;65.00;98524.97;4951993;28;113645;-88
2022/01/08 08:38:35;;;;;;;4.97;1.70;;;4.40;92.20;;;4.29;64.80;98525.22;4948303;28;114469;-87
2022/01/08 08:41:20;;;;;;;2.20;1.60;;;3.90;91.90;;;4.35;64.73;98540.53;4952292;28;122558;-88
2022/01/08 08:43:47;;;;;;;2.13;1.70;;;3.90;91.80;;;4.36;64.20;98533.13;4947520;28;123733;-88
2022/01/08 08:46:15;;;;;;;3.07;1.40;;;3.90;91.60;;;4.36;64.37;98544.09;4953835;28;114243;-88
2022/01/08 08:48:44;;;;;;;2.67;1.60;;;4.70;91.80;;;4.39;64.01;98547.06;4939331;28;112675;-86
2022/01/08 08:51:12;;;;;;;7.30;1.50;;;4.60;91.70;;;4.41;64.50;98546.81;4951082;28;122228;-88
2022/01/08 08:57:21;;;;;;;2.83;1.57;;;4.00;91.20;;;4.40;63.18;98569.75;4952308;28;114081;-89
2022/01/08 08:59:49;;;;;;;1.73;1.33;;;4.00;90.90;;;4.41;63.25;98565.94;4944346;28;112628;-87
2022/01/08 09:02:17;;;;;;;1.90;1.40;;;4.00;90.80;;;4.46;63.09;98567.81;4943439;28;122911;-87
2022/01/08 09:05:04;;;;;;;2.30;1.20;;;4.10;90.90;;;4.56;62.94;98570.53;4977280;28;122907;-86
2022/01/08 09:07:33;;;;;;;7.63;1.73;;;4.10;90.80;;;4.58;62.57;98576.56;4953869;28;113943;-87
2022/01/08 09:10:03;;;;;;;1.80;1.40;;;4.10;90.70;;;4.57;62.55;98581.22;4936522;28;113277;-86
2022/01/08 09:12:30;;;;;;;3.93;1.87;;;4.30;90.60;;;4.57;62.48;98592.16;4952135;28;122203;-88
2022/01/08 09:14:57;;;;;;;6.97;1.80;;;4.20;90.50;;;4.58;62.44;98576.56;4947282;28;122957;-85
2022/01/08 09:17:26;;;;;;;2.50;1.70;;;4.00;90.40;;;4.58;61.81;98590.25;4952632;28;114443;-87
2022/01/08 09:19:53;;;;;;;2.23;1.60;;;4.20;90.40;;;4.58;62.63;98582.84;4966087;28;112894;-86
2022/01/08 09:22:40;;;;;;;2.80;1.50;;;4.20;90.40;;;4.66;61.83;98589.66;4950240;28;123220;-87
2022/01/08 09:25:27;;;;;;;2.57;1.60;;;4.20;90.10;;;4.64;61.63;98591.84;4943743;28;124379;-87
2022/01/08 09:28:13;;;;;;;3.27;1.60;;;4.20;90.00;;;4.65;62.02;98588.03;4948254;28;113531;-86
2022/01/08 09:30:40;;;;;;;3.13;1.90;;;4.20;90.10;;;4.67;61.70;98591.28;4946363;28;114430;-87
2022/01/08 09:33:08;;;;;;;4.20;1.97;;;4.30;90.40;;;4.72;61.86;98609.63;4951148;28;124020;-83
2022/01/08 09:36:13;;;;;;;2.60;1.77;;;4.30;90.10;;;4.72;61.85;98594.00;4962326;28;124969;-86
2022/01/08 09:38:40;;;;;;;2.70;1.40;;;4.30;90.00;;;4.73;61.07;98603.03;4985874;28;113617;-87
2022/01/08 09:41:26;;;;;;;1.77;1.67;;;4.30;90.00;;;4.78;61.20;98601.13;4960113;28;112568;-86
2022/01/08 09:44:12;;;;;;;2.90;1.47;;;4.40;90.00;;;4.79;61.41;98605.50;4950983;28;123227;-88
2022/01/08 09:46:40;;;;;;;4.40;1.97;;;4.40;89.50;;;4.76;61.17;98606.06;4954852;28;123746;-86
2022/01/08 09:49:06;;;;;;;2.43;1.57;;;4.40;89.20;;;4.76;60.86;98608.78;4949702;28;113554;-87
2022/01/08 09:51:36;;;;;;;2.47;1.70;;;4.40;89.10;;;4.81;60.94;98616.16;4950974;28;113051;-86
2022/01/08 09:54:05;;;;;;;5.43;1.80;;;4.40;89.00;;;4.81;60.20;98610.69;4951641;28;122964;-87
2022/01/08 09:56:32;;;;;;;3.90;1.87;;;4.40;88.50;;;4.83;60.23;98616.69;4956384;28;121646;-87
2022/01/08 09:59:01;;;;;;;4.70;1.70;;;4.40;88.40;;;4.85;60.47;98614.50;4953158;28;113439;-88
2022/01/08 10:01:34;;;;;;;2.43;1.47;;;4.40;88.40;;;4.88;60.06;98625.69;4950341;28;114339;-88
2022/01/08 10:04:04;;;;;;;3.87;1.70;;;4.40;88.10;;;4.88;59.88;98628.44;4942391;28;122935;-87
2022/01/08 10:06:36;;;;;;;3.60;1.83;;;4.70;88.40;;;4.93;59.50;98610.38;4955782;28;121795;-88
2022/01/08 10:09:22;;;;;;;3.00;1.57;;;4.50;88.00;;;4.95;59.41;98609.00;4955335;28;114415;-87
2022/01/08 10:11:50;;;;;;;3.27;1.93;;;4.50;87.90;;;4.94;59.57;98609.25;4982092;28;115140;-87
2022/01/08 10:14:29;;;;;;;4.63;1.97;;;4.50;87.60;;;4.96;59.34;98618.00;4950300;28;123543;-87
2022/01/08 10:17:15;;;;;;;4.20;2.03;;;5.80;88.50;;;4.95;59.03;98624.59;4956526;28;124206;-87
2022/01/08 10:19:44;;;;;;;3.10;1.60;;;4.50;87.00;;;4.94;58.69;98617.47;4955589;28;113286;-86
2022/01/08 10:22:19;;;;;;;2.30;1.53;;;4.50;86.90;;;4.96;58.36;98623.50;4990983;28;113346;-87
2022/01/08 10:24:45;;;;;;;4.37;1.87;;;4.60;86.90;;;4.96;59.49;98624.31;4965894;28;122423;-87
2022/01/08 10:27:12;;;;;;;3.10;1.77;;;4.60;86.90;;;5.01;58.80;98626.22;4942672;28;121186;-87
2022/01/08 10:30:36;;;;;;;3.63;1.60;;;4.60;86.80;;;5.05;58.94;98619.06;4940666;28;112744;-86
2022/01/08 10:33:03;;;;;;;5.40;2.13;;;4.60;86.60;;;5.05;58.59;98625.38;4951332;28;113431;-87
2022/01/08 10:35:51;;;;;;;2.90;1.57;;;4.70;86.60;;;5.08;58.64;98624.81;4972756;28;122232;-87
2022/01/08 10:38:20;;;;;;;1.83;1.30;;;4.60;86.00;;;5.06;58.18;98632.47;4943194;28;122727;-87
2022/01/08 10:40:47;;;;;;;3.30;1.70;;;4.70;86.10;;;5.07;58.08;98627.81;4964013;28;113589;-88
2022/01/08 10:43:30;;;;;;;4.30;1.70;;;4.70;85.80;;;5.10;57.10;98624.50;4951900;28;113135;-87
2022/01/08 10:46:16;;;;;;;5.87;1.90;;;4.70;85.50;;;5.07;57.55;98627.81;4951875;28;123492;-87
2022/01/08 10:48:50;;;;;;;4.70;1.90;;;4.70;84.80;;;5.03;56.68;98616.63;4981244;28;122506;-87
2022/01/08 10:51:26;;;;;;;3.27;2.07;;;4.60;84.30;;;5.01;57.17;98621.53;4951239;28;113832;-87
2022/01/08 10:54:12;;;;;;;2.77;1.43;;;4.60;84.40;;;5.02;56.88;98627.84;4950319;28;114316;-86
2022/01/08 10:56:45;;;;;;;2.20;1.83;;;4.60;84.50;;;5.04;57.75;98626.47;4950353;28;123270;-88
2022/01/08 10:59:23;;;;;;;3.13;1.80;;;5.30;85.30;;;5.10;57.62;98621.78;4954479;28;124187;-87
2022/01/08 11:02:12;;;;;;;3.03;2.00;;;4.70;85.00;;;5.13;57.07;98626.72;4952173;28;114266;-86
2022/01/08 11:04:53;;;;;;;3.67;1.73;;;4.70;84.90;;;5.17;56.45;98616.81;4942221;28;113924;-86
2022/01/08 11:07:20;;;;;;;4.50;1.47;;;4.70;84.70;;;5.15;56.64;98607.25;4950311;28;123304;-86
2022/01/08 11:10:04;;;;;;;4.60;1.50;;;4.70;84.20;;;5.17;56.65;98600.38;4956024;28;124378;-86
2022/01/08 11:12:40;;;;;;;8.30;2.20;;;4.70;83.80;;;5.17;55.64;98611.34;4952486;28;114500;-87
2022/01/08 11:17:52;;;;;;;1.80;1.57;;;4.70;83.80;;;5.36;56.63;98600.56;4948396;28;123856;-87
2022/01/08 11:20:25;;;;;;;1.97;1.60;;;4.90;84.30;;;5.53;56.65;98591.94;4951415;28;122758;-87
2022/01/08 11:23:13;;;;;;;3.83;1.50;;;5.00;84.20;;;5.78;56.24;98587.38;4947116;28;113995;-88
2022/01/08 11:25:44;;;;;;;2.07;1.70;;;5.10;84.30;;;5.96;55.36;98583.97;4980004;28;113955;-87
2022/01/08 11:28:15;;;;;;;3.57;1.73;;;5.20;84.30;;;6.10;55.19;98581.38;4955771;28;123762;-87
2022/01/08 11:31:06;;;;;;;1.97;1.30;;;5.40;84.30;;;6.23;54.98;98582.63;4955967;28;124470;-86